sensor_id;sensor_type;location;lat;lon;timestamp;P1;durP1;ratioP1;P2;durP2;ratioP2
8698;SDS011;4386;51.236;6.742;2023-03-08T00:00:13;5.07;;;3.95;;
8698;SDS011;4386;51.236;6.742;2023-03-08T00:01:24;6.75;;;4.00;;
8698;SDS011;4386;51.236;6.742;2023-03-08T00:02:44;4.90;;;4.10;;
8698;SDS011;4386;51.236;6.742;2023-03-08T00:03:49;6.72;;;4.20;;
8698;SDS011;4386;51.236;6.742;2023-03-08T00:04:53;4.50;;;4.10;;
8698;SDS011;4386;51.236;6.742;2023-03-08T00:05:57;5.97;;;3.85;;
8698;SDS011;4386;51.236;6.742;2023-03-08T00:06:59;7.70;;;3.90;;
8698;SDS011;4386;51.236;6.742;2023-03-08T00:08:02;4.25;;;3.72;;
8698;SDS011;4386;51.236;6.742;2023-03-08T00:09:03;5.65;;;4.10;;
8698;SDS011;4386;51.236;6.742;2023-03-08T00:10:06;6.13;;;4.20;;
8698;SDS011;4386;51.236;6.742;2023-03-08T00:11:10;6.05;;;3.95;;
8698;SDS011;4386;51.236;6.742;2023-03-08T00:12:13;5.15;;;4.40;;
8698;SDS011;4386;51.236;6.742;2023-03-08T00:13:15;4.65;;;3.88;;
8698;SDS011;4386;51.236;6.742;2023-03-08T00:14:17;6.47;;;3.85;;
8698;SDS011;4386;51.236;6.742;2023-03-08T00:15:20;9.60;;;4.63;;
8698;SDS011;4386;51.236;6.742;2023-03-08T00:16:25;8.93;;;4.30;;
8698;SDS011;4386;51.236;6.742;2023-03-08T00:17:26;8.02;;;3.90;;
8698;SDS011;4386;51.236;6.742;2023-03-08T00:18:29;4.22;;;3.58;;
8698;SDS011;4386;51.236;6.742;2023-03-08T00:19:31;13.02;;;4.28;;
8698;SDS011;4386;51.236;6.742;2023-03-08T00:20:34;9.15;;;4.13;;
8698;SDS011;4386;51.236;6.742;2023-03-08T00:21:35;5.00;;;3.95;;
8698;SDS011;4386;51.236;6.742;2023-03-08T00:22:38;6.88;;;4.70;;
8698;SDS011;4386;51.236;6.742;2023-03-08T00:23:42;6.30;;;3.47;;
8698;SDS011;4386;51.236;6.742;2023-03-08T00:24:45;4.55;;;3.92;;
8698;SDS011;4386;51.236;6.742;2023-03-08T00:25:50;6.90;;;3.72;;
8698;SDS011;4386;51.236;6.742;2023-03-08T00:26:53;5.82;;;3.60;;
8698;SDS011;4386;51.236;6.742;2023-03-08T00:27:54;4.80;;;4.05;;
8698;SDS011;4386;51.236;6.742;2023-03-08T00:28:57;6.43;;;4.00;;
8698;SDS011;4386;51.236;6.742;2023-03-08T00:29:58;4.97;;;3.70;;
8698;SDS011;4386;51.236;6.742;2023-03-08T00:31:02;4.82;;;3.63;;
8698;SDS011;4386;51.236;6.742;2023-03-08T00:32:07;5.00;;;3.70;;
8698;SDS011;4386;51.236;6.742;2023-03-08T00:33:10;7.13;;;3.90;;
8698;SDS011;4386;51.236;6.742;2023-03-08T00:34:12;12.15;;;3.67;;
8698;SDS011;4386;51.236;6.742;2023-03-08T00:35:15;8.57;;;4.65;;
8698;SDS011;4386;51.236;6.742;2023-03-08T00:36:20;6.60;;;4.50;;
8698;SDS011;4386;51.236;6.742;2023-03-08T00:37:23;4.18;;;3.70;;
8698;SDS011;4386;51.236;6.742;2023-03-08T00:38:25;6.00;;;4.00;;
8698;SDS011;4386;51.236;6.742;2023-03-08T00:39:28;6.20;;;3.85;;
8698;SDS011;4386;51.236;6.742;2023-03-08T00:40:30;4.85;;;3.97;;
8698;SDS011;4386;51.236;6.742;2023-03-08T00:41:33;7.22;;;3.50;;
8698;SDS011;4386;51.236;6.742;2023-03-08T00:42:35;4.43;;;3.47;;
8698;SDS011;4386;51.236;6.742;2023-03-08T00:43:37;5.80;;;4.60;;
8698;SDS011;4386;51.236;6.742;2023-03-08T00:44:42;4.40;;;3.67;;
8698;SDS011;4386;51.236;6.742;2023-03-08T00:45:43;13.13;;;4.07;;
8698;SDS011;4386;51.236;6.742;2023-03-08T00:46:46;6.95;;;3.80;;
8698;SDS011;4386;51.236;6.742;2023-03-08T00:47:49;5.15;;;3.90;;
8698;SDS011;4386;51.236;6.742;2023-03-08T00:48:52;4.75;;;3.40;;
8698;SDS011;4386;51.236;6.742;2023-03-08T00:49:53;6.82;;;4.85;;
8698;SDS011;4386;51.236;6.742;2023-03-08T00:50:56;7.88;;;4.30;;
8698;SDS011;4386;51.236;6.742;2023-03-08T00:51:57;4.70;;;3.53;;
8698;SDS011;4386;51.236;6.742;2023-03-08T00:53:00;5.90;;;4.10;;
8698;SDS011;4386;51.236;6.742;2023-03-08T00:54:06;5.38;;;4.10;;
8698;SDS011;4386;51.236;6.742;2023-03-08T00:55:09;7.22;;;4.05;;
8698;SDS011;4386;51.236;6.742;2023-03-08T00:56:10;4.97;;;3.92;;
8698;SDS011;4386;51.236;6.742;2023-03-08T00:57:13;5.20;;;4.10;;
8698;SDS011;4386;51.236;6.742;2023-03-08T00:58:16;9.32;;;4.63;;
8698;SDS011;4386;51.236;6.742;2023-03-08T00:59:19;4.13;;;3.72;;
8698;SDS011;4386;51.236;6.742;2023-03-08T01:00:20;5.80;;;3.85;;
8698;SDS011;4386;51.236;6.742;2023-03-08T01:01:28;5.43;;;3.58;;
8698;SDS011;4386;51.236;6.742;2023-03-08T01:02:30;6.78;;;3.47;;
8698;SDS011;4386;51.236;6.742;2023-03-08T01:03:34;6.28;;;3.88;;
8698;SDS011;4386;51.236;6.742;2023-03-08T01:04:35;5.75;;;4.43;;
8698;SDS011;4386;51.236;6.742;2023-03-08T01:05:38;7.30;;;3.17;;
8698;SDS011;4386;51.236;6.742;2023-03-08T01:06:41;3.97;;;3.30;;
8698;SDS011;4386;51.236;6.742;2023-03-08T01:07:44;10.90;;;4.32;;
8698;SDS011;4386;51.236;6.742;2023-03-08T01:08:45;4.85;;;3.53;;
8698;SDS011;4386;51.236;6.742;2023-03-08T01:09:48;6.63;;;3.53;;
8698;SDS011;4386;51.236;6.742;2023-03-08T01:10:51;7.00;;;3.25;;
8698;SDS011;4386;51.236;6.742;2023-03-08T01:11:56;3.65;;;3.28;;
8698;SDS011;4386;51.236;6.742;2023-03-08T01:12:58;5.22;;;3.22;;
8698;SDS011;4386;51.236;6.742;2023-03-08T01:14:01;7.47;;;3.60;;
8698;SDS011;4386;51.236;6.742;2023-03-08T01:15:03;6.65;;;3.85;;
8698;SDS011;4386;51.236;6.742;2023-03-08T01:16:13;8.52;;;3.60;;
8698;SDS011;4386;51.236;6.742;2023-03-08T01:17:16;6.47;;;3.50;;
8698;SDS011;4386;51.236;6.742;2023-03-08T01:18:18;5.70;;;3.97;;
8698;SDS011;4386;51.236;6.742;2023-03-08T01:19:21;3.95;;;3.40;;
8698;SDS011;4386;51.236;6.742;2023-03-08T01:20:24;9.90;;;4.20;;
8698;SDS011;4386;51.236;6.742;2023-03-08T01:21:25;5.43;;;4.18;;
8698;SDS011;4386;51.236;6.742;2023-03-08T01:22:29;9.35;;;3.85;;
8698;SDS011;4386;51.236;6.742;2023-03-08T01:23:30;6.55;;;3.75;;
8698;SDS011;4386;51.236;6.742;2023-03-08T01:24:33;4.60;;;4.05;;
8698;SDS011;4386;51.236;6.742;2023-03-08T01:25:35;9.93;;;4.35;;
8698;SDS011;4386;51.236;6.742;2023-03-08T01:26:43;7.07;;;4.15;;
8698;SDS011;4386;51.236;6.742;2023-03-08T01:27:44;8.63;;;4.25;;
8698;SDS011;4386;51.236;6.742;2023-03-08T01:28:47;6.78;;;4.45;;
8698;SDS011;4386;51.236;6.742;2023-03-08T01:29:49;6.75;;;4.30;;
8698;SDS011;4386;51.236;6.742;2023-03-08T01:30:52;8.65;;;4.95;;
8698;SDS011;4386;51.236;6.742;2023-03-08T01:31:54;16.48;;;4.63;;
8698;SDS011;4386;51.236;6.742;2023-03-08T01:32:56;4.95;;;3.83;;
8698;SDS011;4386;51.236;6.742;2023-03-08T01:33:58;6.53;;;3.83;;
8698;SDS011;4386;51.236;6.742;2023-03-08T01:35:02;11.00;;;4.70;;
8698;SDS011;4386;51.236;6.742;2023-03-08T01:36:06;8.27;;;4.25;;
8698;SDS011;4386;51.236;6.742;2023-03-08T01:37:10;13.07;;;4.95;;
8698;SDS011;4386;51.236;6.742;2023-03-08T01:38:12;13.98;;;4.55;;
8698;SDS011;4386;51.236;6.742;2023-03-08T01:39:14;5.22;;;4.10;;
8698;SDS011;4386;51.236;6.742;2023-03-08T01:40:16;6.95;;;4.10;;
8698;SDS011;4386;51.236;6.742;2023-03-08T01:41:19;6.30;;;4.32;;
8698;SDS011;4386;51.236;6.742;2023-03-08T01:42:22;4.78;;;3.83;;
8698;SDS011;4386;51.236;6.742;2023-03-08T01:43:26;4.93;;;4.35;;
8698;SDS011;4386;51.236;6.742;2023-03-08T01:44:46;5.55;;;4.18;;
8698;SDS011;4386;51.236;6.742;2023-03-08T01:47:19;9.30;;;5.00;;
8698;SDS011;4386;51.236;6.742;2023-03-08T01:48:23;5.05;;;4.47;;
8698;SDS011;4386;51.236;6.742;2023-03-08T01:49:32;8.43;;;4.40;;
8698;SDS011;4386;51.236;6.742;2023-03-08T01:50:46;7.57;;;4.05;;
8698;SDS011;4386;51.236;6.742;2023-03-08T01:51:50;11.52;;;4.60;;
8698;SDS011;4386;51.236;6.742;2023-03-08T01:52:55;8.18;;;4.78;;
8698;SDS011;4386;51.236;6.742;2023-03-08T01:54:11;6.88;;;4.72;;
8698;SDS011;4386;51.236;6.742;2023-03-08T01:55:16;5.05;;;4.25;;
8698;SDS011;4386;51.236;6.742;2023-03-08T01:56:19;10.73;;;4.32;;
8698;SDS011;4386;51.236;6.742;2023-03-08T01:57:24;10.32;;;4.80;;
8698;SDS011;4386;51.236;6.742;2023-03-08T01:58:28;5.00;;;4.00;;
8698;SDS011;4386;51.236;6.742;2023-03-08T01:59:32;5.55;;;4.35;;
8698;SDS011;4386;51.236;6.742;2023-03-08T02:00:35;5.72;;;4.00;;
8698;SDS011;4386;51.236;6.742;2023-03-08T02:01:39;5.43;;;4.35;;
8698;SDS011;4386;51.236;6.742;2023-03-08T02:02:42;6.05;;;4.20;;
8698;SDS011;4386;51.236;6.742;2023-03-08T02:03:48;7.30;;;4.22;;
8698;SDS011;4386;51.236;6.742;2023-03-08T02:04:52;6.72;;;3.85;;
8698;SDS011;4386;51.236;6.742;2023-03-08T02:05:55;5.70;;;3.85;;
8698;SDS011;4386;51.236;6.742;2023-03-08T02:06:58;8.77;;;4.85;;
8698;SDS011;4386;51.236;6.742;2023-03-08T02:08:00;5.60;;;3.97;;
8698;SDS011;4386;51.236;6.742;2023-03-08T02:09:03;8.77;;;4.75;;
8698;SDS011;4386;51.236;6.742;2023-03-08T02:10:07;5.55;;;3.95;;
8698;SDS011;4386;51.236;6.742;2023-03-08T02:11:09;6.93;;;4.22;;
8698;SDS011;4386;51.236;6.742;2023-03-08T02:12:14;8.35;;;4.32;;
8698;SDS011;4386;51.236;6.742;2023-03-08T02:13:16;6.20;;;3.70;;
8698;SDS011;4386;51.236;6.742;2023-03-08T02:14:21;5.97;;;4.60;;
8698;SDS011;4386;51.236;6.742;2023-03-08T02:15:23;9.32;;;5.10;;
8698;SDS011;4386;51.236;6.742;2023-03-08T02:16:25;5.43;;;4.55;;
8698;SDS011;4386;51.236;6.742;2023-03-08T02:17:28;7.18;;;4.43;;
8698;SDS011;4386;51.236;6.742;2023-03-08T02:18:29;4.35;;;3.63;;
8698;SDS011;4386;51.236;6.742;2023-03-08T02:19:33;4.88;;;4.38;;
8698;SDS011;4386;51.236;6.742;2023-03-08T02:20:43;6.63;;;4.43;;
8698;SDS011;4386;51.236;6.742;2023-03-08T02:21:47;8.50;;;4.82;;
8698;SDS011;4386;51.236;6.742;2023-03-08T02:23:06;8.65;;;4.70;;
8698;SDS011;4386;51.236;6.742;2023-03-08T02:24:16;4.75;;;4.28;;
8698;SDS011;4386;51.236;6.742;2023-03-08T02:25:21;6.35;;;4.70;;
8698;SDS011;4386;51.236;6.742;2023-03-08T02:26:24;5.15;;;4.25;;
8698;SDS011;4386;51.236;6.742;2023-03-08T02:27:26;5.90;;;4.30;;
8698;SDS011;4386;51.236;6.742;2023-03-08T02:28:29;6.30;;;4.00;;
8698;SDS011;4386;51.236;6.742;2023-03-08T02:29:42;6.65;;;4.82;;
8698;SDS011;4386;51.236;6.742;2023-03-08T02:30:44;5.28;;;4.20;;
8698;SDS011;4386;51.236;6.742;2023-03-08T02:31:47;9.45;;;4.82;;
8698;SDS011;4386;51.236;6.742;2023-03-08T02:32:48;6.10;;;5.47;;
8698;SDS011;4386;51.236;6.742;2023-03-08T02:33:51;7.18;;;4.78;;
8698;SDS011;4386;51.236;6.742;2023-03-08T02:34:52;5.75;;;4.10;;
8698;SDS011;4386;51.236;6.742;2023-03-08T02:35:55;6.15;;;4.97;;
8698;SDS011;4386;51.236;6.742;2023-03-08T02:36:56;5.40;;;4.70;;
8698;SDS011;4386;51.236;6.742;2023-03-08T02:37:59;7.93;;;5.10;;
8698;SDS011;4386;51.236;6.742;2023-03-08T02:39:02;5.72;;;5.05;;
8698;SDS011;4386;51.236;6.742;2023-03-08T02:40:05;7.88;;;4.97;;
8698;SDS011;4386;51.236;6.742;2023-03-08T02:41:08;7.88;;;5.18;;
8698;SDS011;4386;51.236;6.742;2023-03-08T02:42:11;6.10;;;4.90;;
8698;SDS011;4386;51.236;6.742;2023-03-08T02:43:12;6.75;;;5.53;;
8698;SDS011;4386;51.236;6.742;2023-03-08T02:44:15;8.40;;;5.90;;
8698;SDS011;4386;51.236;6.742;2023-03-08T02:45:16;12.93;;;6.13;;
8698;SDS011;4386;51.236;6.742;2023-03-08T02:46:19;7.45;;;5.70;;
8698;SDS011;4386;51.236;6.742;2023-03-08T02:47:21;8.95;;;5.85;;
8698;SDS011;4386;51.236;6.742;2023-03-08T02:48:23;8.20;;;5.80;;
8698;SDS011;4386;51.236;6.742;2023-03-08T02:49:25;9.45;;;5.70;;
8698;SDS011;4386;51.236;6.742;2023-03-08T02:50:27;10.15;;;6.13;;
8698;SDS011;4386;51.236;6.742;2023-03-08T02:51:29;8.60;;;5.65;;
8698;SDS011;4386;51.236;6.742;2023-03-08T02:52:32;9.60;;;5.05;;
8698;SDS011;4386;51.236;6.742;2023-03-08T02:53:33;7.75;;;5.10;;
8698;SDS011;4386;51.236;6.742;2023-03-08T02:54:39;8.40;;;5.40;;
8698;SDS011;4386;51.236;6.742;2023-03-08T02:55:41;9.63;;;5.85;;
8698;SDS011;4386;51.236;6.742;2023-03-08T02:56:43;7.30;;;4.85;;
8698;SDS011;4386;51.236;6.742;2023-03-08T02:57:45;9.43;;;5.70;;
8698;SDS011;4386;51.236;6.742;2023-03-08T02:58:48;7.40;;;5.63;;
8698;SDS011;4386;51.236;6.742;2023-03-08T02:59:49;11.77;;;5.57;;
8698;SDS011;4386;51.236;6.742;2023-03-08T03:00:52;9.38;;;5.22;;
8698;SDS011;4386;51.236;6.742;2023-03-08T03:01:53;9.65;;;6.57;;
8698;SDS011;4386;51.236;6.742;2023-03-08T03:02:57;11.55;;;5.88;;
8698;SDS011;4386;51.236;6.742;2023-03-08T03:03:59;10.30;;;6.75;;
8698;SDS011;4386;51.236;6.742;2023-03-08T03:05:02;10.13;;;5.60;;
8698;SDS011;4386;51.236;6.742;2023-03-08T03:06:11;6.55;;;5.65;;
8698;SDS011;4386;51.236;6.742;2023-03-08T03:07:15;11.20;;;5.95;;
8698;SDS011;4386;51.236;6.742;2023-03-08T03:08:17;8.55;;;5.95;;
8698;SDS011;4386;51.236;6.742;2023-03-08T03:09:19;8.73;;;5.43;;
8698;SDS011;4386;51.236;6.742;2023-03-08T03:10:22;9.55;;;6.80;;
8698;SDS011;4386;51.236;6.742;2023-03-08T03:11:25;9.48;;;5.80;;
8698;SDS011;4386;51.236;6.742;2023-03-08T03:12:27;10.32;;;6.28;;
8698;SDS011;4386;51.236;6.742;2023-03-08T03:13:30;8.98;;;6.28;;
8698;SDS011;4386;51.236;6.742;2023-03-08T03:14:32;9.00;;;6.05;;
8698;SDS011;4386;51.236;6.742;2023-03-08T03:15:36;8.93;;;5.88;;
8698;SDS011;4386;51.236;6.742;2023-03-08T03:16:39;8.38;;;6.00;;
8698;SDS011;4386;51.236;6.742;2023-03-08T03:17:41;10.55;;;6.07;;
8698;SDS011;4386;51.236;6.742;2023-03-08T03:18:43;8.13;;;5.90;;
8698;SDS011;4386;51.236;6.742;2023-03-08T03:19:46;9.95;;;6.15;;
8698;SDS011;4386;51.236;6.742;2023-03-08T03:20:47;10.82;;;6.20;;
8698;SDS011;4386;51.236;6.742;2023-03-08T03:21:50;8.32;;;6.20;;
8698;SDS011;4386;51.236;6.742;2023-03-08T03:22:51;9.07;;;6.20;;
8698;SDS011;4386;51.236;6.742;2023-03-08T03:23:54;8.25;;;6.20;;
8698;SDS011;4386;51.236;6.742;2023-03-08T03:24:56;12.50;;;6.53;;
8698;SDS011;4386;51.236;6.742;2023-03-08T03:26:08;8.93;;;5.75;;
8698;SDS011;4386;51.236;6.742;2023-03-08T03:27:11;9.00;;;5.88;;
8698;SDS011;4386;51.236;6.742;2023-03-08T03:28:13;15.30;;;5.82;;
8698;SDS011;4386;51.236;6.742;2023-03-08T03:29:15;9.93;;;6.05;;
8698;SDS011;4386;51.236;6.742;2023-03-08T03:30:17;8.70;;;6.25;;
8698;SDS011;4386;51.236;6.742;2023-03-08T03:31:20;8.88;;;6.97;;
8698;SDS011;4386;51.236;6.742;2023-03-08T03:32:24;7.97;;;6.32;;
8698;SDS011;4386;51.236;6.742;2023-03-08T03:33:26;10.50;;;6.35;;
8698;SDS011;4386;51.236;6.742;2023-03-08T03:34:29;9.70;;;5.85;;
8698;SDS011;4386;51.236;6.742;2023-03-08T03:35:30;9.85;;;6.50;;
8698;SDS011;4386;51.236;6.742;2023-03-08T03:36:33;10.88;;;6.60;;
8698;SDS011;4386;51.236;6.742;2023-03-08T03:37:34;9.15;;;6.38;;
8698;SDS011;4386;51.236;6.742;2023-03-08T03:38:37;12.43;;;6.80;;
8698;SDS011;4386;51.236;6.742;2023-03-08T03:39:39;7.15;;;5.65;;
8698;SDS011;4386;51.236;6.742;2023-03-08T03:40:42;9.20;;;6.30;;
8698;SDS011;4386;51.236;6.742;2023-03-08T03:41:45;10.27;;;6.55;;
8698;SDS011;4386;51.236;6.742;2023-03-08T03:42:47;9.38;;;6.50;;
8698;SDS011;4386;51.236;6.742;2023-03-08T03:43:50;9.63;;;6.28;;
8698;SDS011;4386;51.236;6.742;2023-03-08T03:44:53;14.32;;;7.22;;
8698;SDS011;4386;51.236;6.742;2023-03-08T03:45:54;10.13;;;6.40;;
8698;SDS011;4386;51.236;6.742;2023-03-08T03:46:58;8.40;;;6.03;;
8698;SDS011;4386;51.236;6.742;2023-03-08T03:48:00;9.75;;;6.78;;
8698;SDS011;4386;51.236;6.742;2023-03-08T03:49:02;10.82;;;6.97;;
8698;SDS011;4386;51.236;6.742;2023-03-08T03:50:07;12.85;;;6.50;;
8698;SDS011;4386;51.236;6.742;2023-03-08T03:51:21;18.08;;;7.07;;
8698;SDS011;4386;51.236;6.742;2023-03-08T03:52:23;10.02;;;6.40;;
8698;SDS011;4386;51.236;6.742;2023-03-08T03:53:26;13.65;;;7.45;;
8698;SDS011;4386;51.236;6.742;2023-03-08T03:54:28;12.00;;;7.00;;
8698;SDS011;4386;51.236;6.742;2023-03-08T03:55:30;9.27;;;6.63;;
8698;SDS011;4386;51.236;6.742;2023-03-08T03:56:32;9.82;;;6.72;;
8698;SDS011;4386;51.236;6.742;2023-03-08T03:57:36;10.05;;;6.35;;
8698;SDS011;4386;51.236;6.742;2023-03-08T03:58:38;12.18;;;6.50;;
8698;SDS011;4386;51.236;6.742;2023-03-08T03:59:41;12.15;;;6.63;;
8698;SDS011;4386;51.236;6.742;2023-03-08T04:00:43;10.80;;;6.82;;
8698;SDS011;4386;51.236;6.742;2023-03-08T04:01:45;10.63;;;6.60;;
8698;SDS011;4386;51.236;6.742;2023-03-08T04:02:47;12.88;;;6.47;;
8698;SDS011;4386;51.236;6.742;2023-03-08T04:03:50;10.25;;;6.75;;
8698;SDS011;4386;51.236;6.742;2023-03-08T04:04:52;9.93;;;6.60;;
8698;SDS011;4386;51.236;6.742;2023-03-08T04:05:54;8.73;;;5.93;;
8698;SDS011;4386;51.236;6.742;2023-03-08T04:07:05;11.13;;;7.47;;
8698;SDS011;4386;51.236;6.742;2023-03-08T04:08:08;10.68;;;7.10;;
8698;SDS011;4386;51.236;6.742;2023-03-08T04:09:11;13.00;;;6.10;;
8698;SDS011;4386;51.236;6.742;2023-03-08T04:10:16;9.52;;;6.70;;
8698;SDS011;4386;51.236;6.742;2023-03-08T04:11:18;11.70;;;7.20;;
8698;SDS011;4386;51.236;6.742;2023-03-08T04:12:32;10.73;;;6.60;;
8698;SDS011;4386;51.236;6.742;2023-03-08T04:13:40;11.73;;;6.43;;
8698;SDS011;4386;51.236;6.742;2023-03-08T04:14:43;12.95;;;7.03;;
8698;SDS011;4386;51.236;6.742;2023-03-08T04:15:55;12.05;;;6.47;;
8698;SDS011;4386;51.236;6.742;2023-03-08T04:16:57;9.02;;;6.75;;
8698;SDS011;4386;51.236;6.742;2023-03-08T04:17:59;9.43;;;6.03;;
8698;SDS011;4386;51.236;6.742;2023-03-08T04:19:02;9.98;;;6.20;;
8698;SDS011;4386;51.236;6.742;2023-03-08T04:20:06;11.50;;;6.60;;
8698;SDS011;4386;51.236;6.742;2023-03-08T04:21:10;9.10;;;6.30;;
8698;SDS011;4386;51.236;6.742;2023-03-08T04:22:12;10.70;;;6.28;;
8698;SDS011;4386;51.236;6.742;2023-03-08T04:23:15;7.30;;;5.55;;
8698;SDS011;4386;51.236;6.742;2023-03-08T04:24:17;12.43;;;6.30;;
8698;SDS011;4386;51.236;6.742;2023-03-08T04:25:20;9.00;;;5.65;;
8698;SDS011;4386;51.236;6.742;2023-03-08T04:26:22;12.23;;;5.97;;
8698;SDS011;4386;51.236;6.742;2023-03-08T04:27:25;7.32;;;5.70;;
8698;SDS011;4386;51.236;6.742;2023-03-08T04:28:27;8.95;;;6.05;;
8698;SDS011;4386;51.236;6.742;2023-03-08T04:29:31;9.18;;;5.78;;
8698;SDS011;4386;51.236;6.742;2023-03-08T04:30:33;9.60;;;6.28;;
8698;SDS011;4386;51.236;6.742;2023-03-08T04:31:35;10.07;;;6.45;;
8698;SDS011;4386;51.236;6.742;2023-03-08T04:32:37;8.30;;;5.60;;
8698;SDS011;4386;51.236;6.742;2023-03-08T04:33:40;10.05;;;6.47;;
8698;SDS011;4386;51.236;6.742;2023-03-08T04:34:42;10.38;;;6.43;;
8698;SDS011;4386;51.236;6.742;2023-03-08T04:35:45;12.10;;;6.93;;
8698;SDS011;4386;51.236;6.742;2023-03-08T04:36:47;11.45;;;6.70;;
8698;SDS011;4386;51.236;6.742;2023-03-08T04:37:49;15.00;;;7.13;;
8698;SDS011;4386;51.236;6.742;2023-03-08T04:38:51;11.25;;;7.60;;
8698;SDS011;4386;51.236;6.742;2023-03-08T04:39:54;8.68;;;6.70;;
8698;SDS011;4386;51.236;6.742;2023-03-08T04:40:56;12.50;;;7.65;;
8698;SDS011;4386;51.236;6.742;2023-03-08T04:42:06;10.60;;;7.40;;
8698;SDS011;4386;51.236;6.742;2023-03-08T04:43:08;11.27;;;7.03;;
8698;SDS011;4386;51.236;6.742;2023-03-08T04:44:10;9.93;;;7.40;;
8698;SDS011;4386;51.236;6.742;2023-03-08T04:45:14;12.55;;;8.70;;
8698;SDS011;4386;51.236;6.742;2023-03-08T04:46:23;11.57;;;7.75;;
8698;SDS011;4386;51.236;6.742;2023-03-08T04:47:27;10.48;;;8.00;;
8698;SDS011;4386;51.236;6.742;2023-03-08T04:48:29;12.70;;;8.18;;
8698;SDS011;4386;51.236;6.742;2023-03-08T04:49:32;11.93;;;7.75;;
8698;SDS011;4386;51.236;6.742;2023-03-08T04:50:33;12.60;;;7.07;;
8698;SDS011;4386;51.236;6.742;2023-03-08T04:51:36;11.80;;;7.80;;
8698;SDS011;4386;51.236;6.742;2023-03-08T04:52:38;12.57;;;8.25;;
8698;SDS011;4386;51.236;6.742;2023-03-08T04:53:40;15.25;;;8.40;;
8698;SDS011;4386;51.236;6.742;2023-03-08T04:54:44;13.43;;;8.15;;
8698;SDS011;4386;51.236;6.742;2023-03-08T04:55:47;12.45;;;7.82;;
8698;SDS011;4386;51.236;6.742;2023-03-08T04:56:49;12.93;;;7.80;;
8698;SDS011;4386;51.236;6.742;2023-03-08T04:57:51;14.40;;;8.88;;
8698;SDS011;4386;51.236;6.742;2023-03-08T04:58:53;14.38;;;9.80;;
8698;SDS011;4386;51.236;6.742;2023-03-08T04:59:56;14.40;;;9.70;;
8698;SDS011;4386;51.236;6.742;2023-03-08T05:00:59;17.83;;;10.82;;
8698;SDS011;4386;51.236;6.742;2023-03-08T05:02:09;15.57;;;9.93;;
8698;SDS011;4386;51.236;6.742;2023-03-08T05:03:11;15.85;;;10.20;;
8698;SDS011;4386;51.236;6.742;2023-03-08T05:04:13;17.08;;;11.30;;
8698;SDS011;4386;51.236;6.742;2023-03-08T05:05:16;23.52;;;11.20;;
8698;SDS011;4386;51.236;6.742;2023-03-08T05:06:18;19.85;;;11.20;;
8698;SDS011;4386;51.236;6.742;2023-03-08T05:07:21;15.93;;;10.02;;
8698;SDS011;4386;51.236;6.742;2023-03-08T05:08:23;16.73;;;11.68;;
8698;SDS011;4386;51.236;6.742;2023-03-08T05:09:26;15.80;;;11.25;;
8698;SDS011;4386;51.236;6.742;2023-03-08T05:10:28;15.27;;;11.05;;
8698;SDS011;4386;51.236;6.742;2023-03-08T05:11:32;19.15;;;13.02;;
8698;SDS011;4386;51.236;6.742;2023-03-08T05:12:34;20.50;;;12.77;;
8698;SDS011;4386;51.236;6.742;2023-03-08T05:13:37;20.92;;;12.60;;
8698;SDS011;4386;51.236;6.742;2023-03-08T05:14:40;20.23;;;12.98;;
8698;SDS011;4386;51.236;6.742;2023-03-08T05:15:41;22.90;;;13.70;;
8698;SDS011;4386;51.236;6.742;2023-03-08T05:16:45;22.15;;;12.98;;
8698;SDS011;4386;51.236;6.742;2023-03-08T05:17:47;26.02;;;14.52;;
8698;SDS011;4386;51.236;6.742;2023-03-08T05:18:50;19.83;;;13.15;;
8698;SDS011;4386;51.236;6.742;2023-03-08T05:19:53;21.95;;;13.63;;
8698;SDS011;4386;51.236;6.742;2023-03-08T05:20:54;23.95;;;13.15;;
8698;SDS011;4386;51.236;6.742;2023-03-08T05:21:58;20.98;;;13.23;;
8698;SDS011;4386;51.236;6.742;2023-03-08T05:23:00;21.67;;;13.13;;
8698;SDS011;4386;51.236;6.742;2023-03-08T05:24:02;22.83;;;13.70;;
8698;SDS011;4386;51.236;6.742;2023-03-08T05:25:11;25.15;;;13.27;;
8698;SDS011;4386;51.236;6.742;2023-03-08T05:26:14;23.88;;;13.82;;
8698;SDS011;4386;51.236;6.742;2023-03-08T05:27:30;26.02;;;15.00;;
8698;SDS011;4386;51.236;6.742;2023-03-08T05:28:34;26.05;;;14.68;;
8698;SDS011;4386;51.236;6.742;2023-03-08T05:29:37;22.33;;;13.60;;
8698;SDS011;4386;51.236;6.742;2023-03-08T05:30:40;21.70;;;13.32;;
8698;SDS011;4386;51.236;6.742;2023-03-08T05:31:42;22.70;;;13.65;;
8698;SDS011;4386;51.236;6.742;2023-03-08T05:32:46;22.00;;;13.15;;
8698;SDS011;4386;51.236;6.742;2023-03-08T05:33:48;21.58;;;12.88;;
8698;SDS011;4386;51.236;6.742;2023-03-08T05:34:52;22.30;;;13.68;;
8698;SDS011;4386;51.236;6.742;2023-03-08T05:35:54;17.60;;;11.63;;
8698;SDS011;4386;51.236;6.742;2023-03-08T05:36:56;23.25;;;12.32;;
8698;SDS011;4386;51.236;6.742;2023-03-08T05:37:59;19.00;;;11.52;;
8698;SDS011;4386;51.236;6.742;2023-03-08T05:39:01;20.88;;;12.82;;
8698;SDS011;4386;51.236;6.742;2023-03-08T05:40:03;21.48;;;11.25;;
8698;SDS011;4386;51.236;6.742;2023-03-08T05:41:08;19.50;;;11.68;;
8698;SDS011;4386;51.236;6.742;2023-03-08T05:42:22;16.48;;;11.18;;
8698;SDS011;4386;51.236;6.742;2023-03-08T05:43:25;16.45;;;11.40;;
8698;SDS011;4386;51.236;6.742;2023-03-08T05:44:30;20.63;;;11.77;;
8698;SDS011;4386;51.236;6.742;2023-03-08T05:45:32;18.73;;;11.45;;
8698;SDS011;4386;51.236;6.742;2023-03-08T05:46:34;18.90;;;11.07;;
8698;SDS011;4386;51.236;6.742;2023-03-08T05:47:38;18.30;;;10.93;;
8698;SDS011;4386;51.236;6.742;2023-03-08T05:48:41;18.38;;;10.55;;
8698;SDS011;4386;51.236;6.742;2023-03-08T05:49:44;18.90;;;11.90;;
8698;SDS011;4386;51.236;6.742;2023-03-08T05:50:45;21.25;;;11.25;;
8698;SDS011;4386;51.236;6.742;2023-03-08T05:51:48;19.40;;;10.43;;
8698;SDS011;4386;51.236;6.742;2023-03-08T05:52:50;17.10;;;10.32;;
8698;SDS011;4386;51.236;6.742;2023-03-08T05:53:53;19.85;;;12.10;;
8698;SDS011;4386;51.236;6.742;2023-03-08T05:54:54;19.40;;;11.43;;
8698;SDS011;4386;51.236;6.742;2023-03-08T05:55:57;18.00;;;10.90;;
8698;SDS011;4386;51.236;6.742;2023-03-08T05:57:09;16.45;;;10.13;;
8698;SDS011;4386;51.236;6.742;2023-03-08T05:58:12;16.50;;;10.60;;
8698;SDS011;4386;51.236;6.742;2023-03-08T05:59:13;17.33;;;11.00;;
8698;SDS011;4386;51.236;6.742;2023-03-08T06:00:16;17.85;;;12.20;;
8698;SDS011;4386;51.236;6.742;2023-03-08T06:01:26;17.55;;;10.65;;
8698;SDS011;4386;51.236;6.742;2023-03-08T06:02:30;18.95;;;12.00;;
8698;SDS011;4386;51.236;6.742;2023-03-08T06:03:31;19.25;;;10.45;;
8698;SDS011;4386;51.236;6.742;2023-03-08T06:04:35;15.55;;;9.68;;
8698;SDS011;4386;51.236;6.742;2023-03-08T06:05:38;16.38;;;10.00;;
8698;SDS011;4386;51.236;6.742;2023-03-08T06:06:39;17.48;;;11.57;;
8698;SDS011;4386;51.236;6.742;2023-03-08T06:07:42;16.95;;;10.23;;
8698;SDS011;4386;51.236;6.742;2023-03-08T06:08:45;16.40;;;9.60;;
8698;SDS011;4386;51.236;6.742;2023-03-08T06:09:47;18.60;;;11.13;;
8698;SDS011;4386;51.236;6.742;2023-03-08T06:10:51;18.65;;;10.40;;
8698;SDS011;4386;51.236;6.742;2023-03-08T06:11:53;18.27;;;10.15;;
8698;SDS011;4386;51.236;6.742;2023-03-08T06:12:56;15.90;;;10.13;;
8698;SDS011;4386;51.236;6.742;2023-03-08T06:13:57;17.35;;;9.45;;
8698;SDS011;4386;51.236;6.742;2023-03-08T06:15:10;13.05;;;8.15;;
8698;SDS011;4386;51.236;6.742;2023-03-08T06:16:13;11.90;;;7.53;;
8698;SDS011;4386;51.236;6.742;2023-03-08T06:17:16;15.10;;;8.43;;
8698;SDS011;4386;51.236;6.742;2023-03-08T06:18:17;14.60;;;8.27;;
8698;SDS011;4386;51.236;6.742;2023-03-08T06:19:20;17.77;;;8.20;;
8698;SDS011;4386;51.236;6.742;2023-03-08T06:20:23;12.57;;;8.20;;
8698;SDS011;4386;51.236;6.742;2023-03-08T06:21:26;13.35;;;7.88;;
8698;SDS011;4386;51.236;6.742;2023-03-08T06:22:28;11.90;;;8.02;;
8698;SDS011;4386;51.236;6.742;2023-03-08T06:23:31;13.35;;;7.25;;
8698;SDS011;4386;51.236;6.742;2023-03-08T06:24:33;13.40;;;7.47;;
8698;SDS011;4386;51.236;6.742;2023-03-08T06:25:36;11.65;;;7.45;;
8698;SDS011;4386;51.236;6.742;2023-03-08T06:26:42;14.75;;;7.35;;
8698;SDS011;4386;51.236;6.742;2023-03-08T06:27:44;15.80;;;7.70;;
8698;SDS011;4386;51.236;6.742;2023-03-08T06:28:46;10.77;;;6.22;;
8698;SDS011;4386;51.236;6.742;2023-03-08T06:29:48;11.68;;;6.50;;
8698;SDS011;4386;51.236;6.742;2023-03-08T06:30:51;11.27;;;7.00;;
8698;SDS011;4386;51.236;6.742;2023-03-08T06:32:03;11.77;;;7.30;;